PGRO

Details ICAO PGRO (ROP)
Name ROTA INTL
Region USA (Guam, Northern Mariana Islands)
Timezone Pacific/Saipan (UTC+10.0)
Plans Departing 3
Arriving 8
Stats Elevation 607 ft / 185 m (AMSL)
Location 14.174309° 145.242536°
Runways 1
Magnetic Variation 0.633° E
Sunrise 2018-05-22 19:51:50 UTC / 2018-05-23 05:51:50 Local
Sunset 2018-05-23 08:42:31 UTC / 2018-05-23 18:42:31 Local
Advertisement - Login to hide

Runways

ID Width Length Bearing (true) Bearing (mag) Surface Threshold Offset Overrun Length
09 150 ft / 46 m 5,994 ft / 1,827 m 91.80° 91.17° Asphalt 0 ft / 0 m 0 ft / 0 m
27 150 ft / 46 m 5,994 ft / 1,827 m 271.81° 271.18° Asphalt 0 ft / 0 m 0 ft / 0 m

Map

Weather


0- 5 10 15 20 25 30 35+ Temperature / ° C

Clouds and Precipitation
Forecast for 2018-05-22 12:00 UTC. Updated 5 hours ago

Ground ~20,000 ft ~40,000 ft Winds

METAR

Not found

TAF

TAF PGRO 220522Z 2206/2306 VRB05KT P6SM VCSH SCT012 SCT120

Frequencies

Unicom 123.60 MHz CTAF
Approach 120.50 MHz GUAM CNTR
Approach 118.70 MHz GUAM CNTR
Warning: Do not use this data for real-world aviation or navigation. No guarantee of current accuracy is given.